sensor_id;sensor_type;location;lat;lon;timestamp;pressure;altitude;pressure_sealevel;temperature;humidity
75745;BME280;64359;51.366;-0.222;2023-04-28T00:00:41;100507.44;;;21.84;50.87
75745;BME280;64359;51.366;-0.222;2023-04-28T00:01:45;100510.15;;;21.87;50.86
75745;BME280;64359;51.366;-0.222;2023-04-28T00:02:50;100509.03;;;21.88;50.85
75745;BME280;64359;51.366;-0.222;2023-04-28T00:03:54;100506.54;;;21.89;50.77
75745;BME280;64359;51.366;-0.222;2023-04-28T00:04:59;100506.83;;;21.91;50.67
75745;BME280;64359;51.366;-0.222;2023-04-28T00:06:04;100504.84;;;21.93;50.75
75745;BME280;64359;51.366;-0.222;2023-04-28T00:07:08;100503.67;;;21.95;50.59
75745;BME280;64359;51.366;-0.222;2023-04-28T00:08:12;100500.39;;;21.96;50.66
75745;BME280;64359;51.366;-0.222;2023-04-28T00:09:17;100496.34;;;21.98;50.64
75745;BME280;64359;51.366;-0.222;2023-04-28T00:10:21;100494.27;;;22.00;50.55
75745;BME280;64359;51.366;-0.222;2023-04-28T00:11:25;100489.99;;;22.01;50.52
75745;BME280;64359;51.366;-0.222;2023-04-28T00:12:30;100488.66;;;22.03;50.49
75745;BME280;64359;51.366;-0.222;2023-04-28T00:13:34;100484.57;;;22.04;50.47
75745;BME280;64359;51.366;-0.222;2023-04-28T00:14:39;100482.53;;;22.06;50.41
75745;BME280;64359;51.366;-0.222;2023-04-28T00:15:44;100477.77;;;22.08;50.40
75745;BME280;64359;51.366;-0.222;2023-04-28T00:16:48;100474.73;;;22.09;50.20
75745;BME280;64359;51.366;-0.222;2023-04-28T00:17:52;100474.70;;;22.11;50.25
75745;BME280;64359;51.366;-0.222;2023-04-28T00:18:57;100469.19;;;22.11;50.23
75745;BME280;64359;51.366;-0.222;2023-04-28T00:20:01;100467.81;;;22.12;50.23
75745;BME280;64359;51.366;-0.222;2023-04-28T00:21:06;100465.85;;;22.13;50.21
75745;BME280;64359;51.366;-0.222;2023-04-28T00:22:10;100466.64;;;22.14;50.16
75745;BME280;64359;51.366;-0.222;2023-04-28T00:23:15;100468.07;;;22.15;50.19
75745;BME280;64359;51.366;-0.222;2023-04-28T00:24:19;100463.80;;;22.16;50.08
75745;BME280;64359;51.366;-0.222;2023-04-28T00:25:23;100465.23;;;22.16;50.21
75745;BME280;64359;51.366;-0.222;2023-04-28T00:26:27;100465.73;;;22.18;50.15
75745;BME280;64359;51.366;-0.222;2023-04-28T00:27:32;100464.98;;;22.18;50.28
75745;BME280;64359;51.366;-0.222;2023-04-28T00:28:37;100460.73;;;22.19;50.24
75745;BME280;64359;51.366;-0.222;2023-04-28T00:29:41;100461.77;;;22.19;50.38
75745;BME280;64359;51.366;-0.222;2023-04-28T00:30:46;100457.02;;;22.19;50.44
75745;BME280;64359;51.366;-0.222;2023-04-28T00:31:50;100456.97;;;22.20;50.26
75745;BME280;64359;51.366;-0.222;2023-04-28T00:32:54;100462.02;;;22.20;50.17
75745;BME280;64359;51.366;-0.222;2023-04-28T00:33:59;100459.60;;;22.20;50.49
75745;BME280;64359;51.366;-0.222;2023-04-28T00:35:05;100459.73;;;22.21;50.34
75745;BME280;64359;51.366;-0.222;2023-04-28T00:36:10;100456.80;;;22.21;50.46
75745;BME280;64359;51.366;-0.222;2023-04-28T00:37:15;100457.10;;;22.22;50.55
75745;BME280;64359;51.366;-0.222;2023-04-28T00:38:19;100453.46;;;22.22;50.54
75745;BME280;64359;51.366;-0.222;2023-04-28T00:39:24;100452.55;;;22.22;50.58
75745;BME280;64359;51.366;-0.222;2023-04-28T00:40:34;100453.42;;;22.22;50.62
75745;BME280;64359;51.366;-0.222;2023-04-28T00:41:39;100453.30;;;22.23;50.55
75745;BME280;64359;51.366;-0.222;2023-04-28T00:42:43;100452.09;;;22.22;50.59
75745;BME280;64359;51.366;-0.222;2023-04-28T00:43:48;100452.13;;;22.22;50.63
75745;BME280;64359;51.366;-0.222;2023-04-28T00:44:53;100449.13;;;22.23;50.53
75745;BME280;64359;51.366;-0.222;2023-04-28T00:45:58;100446.96;;;22.23;50.66
75745;BME280;64359;51.366;-0.222;2023-04-28T00:47:02;100448.96;;;22.23;50.63
75745;BME280;64359;51.366;-0.222;2023-04-28T00:48:07;100447.71;;;22.23;50.60
75745;BME280;64359;51.366;-0.222;2023-04-28T00:49:12;100446.63;;;22.23;50.61
75745;BME280;64359;51.366;-0.222;2023-04-28T00:50:16;100442.15;;;22.22;50.71
75745;BME280;64359;51.366;-0.222;2023-04-28T00:51:21;100444.29;;;22.22;50.69
75745;BME280;64359;51.366;-0.222;2023-04-28T00:52:25;100443.73;;;22.23;50.64
75745;BME280;64359;51.366;-0.222;2023-04-28T00:53:31;100442.91;;;22.22;50.59
75745;BME280;64359;51.366;-0.222;2023-04-28T00:54:36;100443.66;;;22.22;50.57
75745;BME280;64359;51.366;-0.222;2023-04-28T00:55:40;100444.62;;;22.23;50.78
75745;BME280;64359;51.366;-0.222;2023-04-28T00:56:45;100441.36;;;22.23;50.72
75745;BME280;64359;51.366;-0.222;2023-04-28T00:57:49;100444.45;;;22.23;50.55
75745;BME280;64359;51.366;-0.222;2023-04-28T00:58:54;100444.29;;;22.22;50.69
75745;BME280;64359;51.366;-0.222;2023-04-28T00:59:59;100447.30;;;22.23;50.60
75745;BME280;64359;51.366;-0.222;2023-04-28T01:01:04;100448.21;;;22.23;50.43
75745;BME280;64359;51.366;-0.222;2023-04-28T01:02:09;100448.14;;;22.24;50.65
75745;BME280;64359;51.366;-0.222;2023-04-28T01:03:19;100451.31;;;22.24;50.48
75745;BME280;64359;51.366;-0.222;2023-04-28T01:04:23;100449.48;;;22.24;50.52
75745;BME280;64359;51.366;-0.222;2023-04-28T01:05:29;100450.94;;;22.24;50.52
75745;BME280;64359;51.366;-0.222;2023-04-28T01:06:34;100450.70;;;22.25;50.23
75745;BME280;64359;51.366;-0.222;2023-04-28T01:07:39;100451.91;;;22.25;50.40
75745;BME280;64359;51.366;-0.222;2023-04-28T01:08:46;100450.66;;;22.25;50.42
75745;BME280;64359;51.366;-0.222;2023-04-28T01:09:51;100454.92;;;22.26;50.47
75745;BME280;64359;51.366;-0.222;2023-04-28T01:10:55;100450.45;;;22.25;50.47
75745;BME280;64359;51.366;-0.222;2023-04-28T01:12:00;100454.92;;;22.26;50.33
75745;BME280;64359;51.366;-0.222;2023-04-28T01:13:05;100455.46;;;22.26;50.42
75745;BME280;64359;51.366;-0.222;2023-04-28T01:14:09;100455.92;;;22.26;50.45
75745;BME280;64359;51.366;-0.222;2023-04-28T01:15:17;100453.09;;;22.26;50.65
75745;BME280;64359;51.366;-0.222;2023-04-28T01:16:21;100449.33;;;22.26;50.64
75745;BME280;64359;51.366;-0.222;2023-04-28T01:17:25;100448.95;;;22.26;50.69
75745;BME280;64359;51.366;-0.222;2023-04-28T01:18:31;100450.58;;;22.26;50.60
75745;BME280;64359;51.366;-0.222;2023-04-28T01:19:36;100449.92;;;22.25;50.65
75745;BME280;64359;51.366;-0.222;2023-04-28T01:20:40;100448.73;;;22.25;50.46
75745;BME280;64359;51.366;-0.222;2023-04-28T01:21:44;100450.20;;;22.24;50.46
75745;BME280;64359;51.366;-0.222;2023-04-28T01:22:49;100453.99;;;22.25;50.57
75745;BME280;64359;51.366;-0.222;2023-04-28T01:23:53;100450.78;;;22.24;50.47
75745;BME280;64359;51.366;-0.222;2023-04-28T01:24:57;100448.27;;;22.24;50.47
75745;BME280;64359;51.366;-0.222;2023-04-28T01:26:02;100449.77;;;22.24;50.39
75745;BME280;64359;51.366;-0.222;2023-04-28T01:27:06;100451.77;;;22.24;50.32
75745;BME280;64359;51.366;-0.222;2023-04-28T01:28:11;100448.79;;;22.23;50.42
75745;BME280;64359;51.366;-0.222;2023-04-28T01:29:15;100450.30;;;22.22;50.33
75745;BME280;64359;51.366;-0.222;2023-04-28T01:30:20;100449.30;;;22.22;50.27
75745;BME280;64359;51.366;-0.222;2023-04-28T01:31:24;100449.67;;;22.22;50.32
75745;BME280;64359;51.366;-0.222;2023-04-28T01:32:28;100449.38;;;22.21;50.33
75745;BME280;64359;51.366;-0.222;2023-04-28T01:33:33;100449.38;;;22.20;50.39
75745;BME280;64359;51.366;-0.222;2023-04-28T01:34:38;100446.83;;;22.20;50.19
75745;BME280;64359;51.366;-0.222;2023-04-28T01:35:43;100450.00;;;22.19;50.12
75745;BME280;64359;51.366;-0.222;2023-04-28T01:36:47;100448.28;;;22.19;50.22
75745;BME280;64359;51.366;-0.222;2023-04-28T01:37:51;100448.58;;;22.18;50.21
75745;BME280;64359;51.366;-0.222;2023-04-28T01:38:56;100452.05;;;22.17;50.12
75745;BME280;64359;51.366;-0.222;2023-04-28T01:40:00;100450.71;;;22.17;50.19
75745;BME280;64359;51.366;-0.222;2023-04-28T01:41:05;100449.91;;;22.16;50.31
75745;BME280;64359;51.366;-0.222;2023-04-28T01:42:10;100448.36;;;22.15;50.12
75745;BME280;64359;51.366;-0.222;2023-04-28T01:43:14;100447.95;;;22.14;50.25
75745;BME280;64359;51.366;-0.222;2023-04-28T01:44:18;100447.44;;;22.14;50.14
75745;BME280;64359;51.366;-0.222;2023-04-28T01:45:23;100448.61;;;22.13;50.09
75745;BME280;64359;51.366;-0.222;2023-04-28T01:46:27;100448.49;;;22.13;50.23
75745;BME280;64359;51.366;-0.222;2023-04-28T01:47:31;100450.58;;;22.12;50.17
75745;BME280;64359;51.366;-0.222;2023-04-28T01:48:36;100449.02;;;22.12;50.16
75745;BME280;64359;51.366;-0.222;2023-04-28T01:49:40;100450.02;;;22.11;50.18
75745;BME280;64359;51.366;-0.222;2023-04-28T01:50:44;100450.41;;;22.11;50.20
75745;BME280;64359;51.366;-0.222;2023-04-28T01:51:49;100452.52;;;22.10;50.14
75745;BME280;64359;51.366;-0.222;2023-04-28T01:52:53;100451.11;;;22.10;50.18
75745;BME280;64359;51.366;-0.222;2023-04-28T01:53:57;100452.82;;;22.09;50.30
75745;BME280;64359;51.366;-0.222;2023-04-28T01:55:02;100449.65;;;22.09;50.24
75745;BME280;64359;51.366;-0.222;2023-04-28T01:56:06;100451.69;;;22.08;50.08
75745;BME280;64359;51.366;-0.222;2023-04-28T01:57:11;100452.73;;;22.07;50.25
75745;BME280;64359;51.366;-0.222;2023-04-28T01:58:15;100454.40;;;22.07;50.15
75745;BME280;64359;51.366;-0.222;2023-04-28T01:59:19;100453.27;;;22.06;50.18
75745;BME280;64359;51.366;-0.222;2023-04-28T02:00:24;100455.02;;;22.04;50.24
75745;BME280;64359;51.366;-0.222;2023-04-28T02:01:29;100452.89;;;22.04;50.23
75745;BME280;64359;51.366;-0.222;2023-04-28T02:02:33;100455.47;;;22.04;50.22
75745;BME280;64359;51.366;-0.222;2023-04-28T02:03:38;100456.09;;;22.03;50.16
75745;BME280;64359;51.366;-0.222;2023-04-28T02:04:43;100454.02;;;22.02;50.22
75745;BME280;64359;51.366;-0.222;2023-04-28T02:05:47;100451.95;;;22.02;50.14
75745;BME280;64359;51.366;-0.222;2023-04-28T02:06:52;100450.06;;;22.01;50.06
75745;BME280;64359;51.366;-0.222;2023-04-28T02:07:56;100449.92;;;22.00;50.19
75745;BME280;64359;51.366;-0.222;2023-04-28T02:09:00;100451.66;;;22.00;50.16
75745;BME280;64359;51.366;-0.222;2023-04-28T02:10:05;100451.11;;;21.99;50.17
75745;BME280;64359;51.366;-0.222;2023-04-28T02:11:10;100446.77;;;21.98;50.20
75745;BME280;64359;51.366;-0.222;2023-04-28T02:12:14;100448.77;;;21.98;50.14
75745;BME280;64359;51.366;-0.222;2023-04-28T02:13:19;100450.11;;;21.98;50.14
75745;BME280;64359;51.366;-0.222;2023-04-28T02:14:23;100446.64;;;21.97;50.21
75745;BME280;64359;51.366;-0.222;2023-04-28T02:15:28;100446.09;;;21.97;50.33
75745;BME280;64359;51.366;-0.222;2023-04-28T02:16:33;100449.63;;;21.96;50.26
75745;BME280;64359;51.366;-0.222;2023-04-28T02:17:37;100444.51;;;21.95;50.22
75745;BME280;64359;51.366;-0.222;2023-04-28T02:18:41;100444.05;;;21.94;50.22
75745;BME280;64359;51.366;-0.222;2023-04-28T02:19:46;100447.89;;;21.94;50.13
75745;BME280;64359;51.366;-0.222;2023-04-28T02:20:50;100447.46;;;21.93;50.18
75745;BME280;64359;51.366;-0.222;2023-04-28T02:21:54;100446.80;;;21.93;50.20
75745;BME280;64359;51.366;-0.222;2023-04-28T02:22:58;100446.34;;;21.92;50.20
75745;BME280;64359;51.366;-0.222;2023-04-28T02:24:03;100445.91;;;21.91;50.14
75745;BME280;64359;51.366;-0.222;2023-04-28T02:25:09;100445.46;;;21.91;50.23
75745;BME280;64359;51.366;-0.222;2023-04-28T02:26:13;100442.45;;;21.90;50.29
75745;BME280;64359;51.366;-0.222;2023-04-28T02:27:19;100444.57;;;21.89;50.32
75745;BME280;64359;51.366;-0.222;2023-04-28T02:28:24;100449.46;;;21.89;50.29
75745;BME280;64359;51.366;-0.222;2023-04-28T02:29:28;100453.01;;;21.88;50.25
75745;BME280;64359;51.366;-0.222;2023-04-28T02:30:32;100456.17;;;21.87;50.37
75745;BME280;64359;51.366;-0.222;2023-04-28T02:31:37;100455.38;;;21.87;50.31
75745;BME280;64359;51.366;-0.222;2023-04-28T02:32:41;100454.00;;;21.86;50.33
75745;BME280;64359;51.366;-0.222;2023-04-28T02:33:46;100457.67;;;21.86;50.33
75745;BME280;64359;51.366;-0.222;2023-04-28T02:34:54;100451.16;;;21.84;50.32
75745;BME280;64359;51.366;-0.222;2023-04-28T02:36:00;100452.53;;;21.84;50.32
75745;BME280;64359;51.366;-0.222;2023-04-28T02:37:05;100452.20;;;21.84;50.25
75745;BME280;64359;51.366;-0.222;2023-04-28T02:38:09;100453.31;;;21.83;50.34
75745;BME280;64359;51.366;-0.222;2023-04-28T02:39:13;100450.77;;;21.82;50.37
75745;BME280;64359;51.366;-0.222;2023-04-28T02:40:18;100452.98;;;21.82;50.29
75745;BME280;64359;51.366;-0.222;2023-04-28T02:41:23;100453.56;;;21.81;50.41
75745;BME280;64359;51.366;-0.222;2023-04-28T02:42:28;100455.81;;;21.81;50.29
75745;BME280;64359;51.366;-0.222;2023-04-28T02:43:33;100457.73;;;21.80;50.36
75745;BME280;64359;51.366;-0.222;2023-04-28T02:44:37;100453.34;;;21.79;50.31
75745;BME280;64359;51.366;-0.222;2023-04-28T02:45:41;100454.69;;;21.78;50.40
75745;BME280;64359;51.366;-0.222;2023-04-28T02:46:46;100455.98;;;21.78;50.47
75745;BME280;64359;51.366;-0.222;2023-04-28T02:47:50;100457.69;;;21.78;50.36
75745;BME280;64359;51.366;-0.222;2023-04-28T02:48:54;100455.71;;;21.78;50.46
75745;BME280;64359;51.366;-0.222;2023-04-28T02:49:59;100455.41;;;21.77;50.33
75745;BME280;64359;51.366;-0.222;2023-04-28T02:51:04;100452.48;;;21.76;50.38
75745;BME280;64359;51.366;-0.222;2023-04-28T02:52:08;100456.64;;;21.76;50.29
75745;BME280;64359;51.366;-0.222;2023-04-28T02:53:13;100452.17;;;21.75;50.35
75745;BME280;64359;51.366;-0.222;2023-04-28T02:54:17;100458.02;;;21.75;50.29
75745;BME280;64359;51.366;-0.222;2023-04-28T02:55:29;100458.67;;;21.74;50.38
75745;BME280;64359;51.366;-0.222;2023-04-28T02:56:34;100452.59;;;21.73;50.40
75745;BME280;64359;51.366;-0.222;2023-04-28T02:57:39;100457.05;;;21.73;50.37
75745;BME280;64359;51.366;-0.222;2023-04-28T02:58:43;100451.88;;;21.72;50.42
75745;BME280;64359;51.366;-0.222;2023-04-28T02:59:47;100451.21;;;21.72;50.53
75745;BME280;64359;51.366;-0.222;2023-04-28T03:00:51;100451.62;;;21.71;50.46
75745;BME280;64359;51.366;-0.222;2023-04-28T03:01:56;100453.50;;;21.71;50.53
75745;BME280;64359;51.366;-0.222;2023-04-28T03:03:00;100453.66;;;21.69;50.47
75745;BME280;64359;51.366;-0.222;2023-04-28T03:04:05;100455.49;;;21.69;50.47
75745;BME280;64359;51.366;-0.222;2023-04-28T03:05:10;100459.63;;;21.70;50.40
75745;BME280;64359;51.366;-0.222;2023-04-28T03:06:14;100458.86;;;21.69;50.48
75745;BME280;64359;51.366;-0.222;2023-04-28T03:07:20;100460.88;;;21.68;50.43
75745;BME280;64359;51.366;-0.222;2023-04-28T03:08:24;100457.37;;;21.68;50.51
75745;BME280;64359;51.366;-0.222;2023-04-28T03:09:28;100459.95;;;21.67;50.45
75745;BME280;64359;51.366;-0.222;2023-04-28T03:10:33;100455.31;;;21.67;50.44
75745;BME280;64359;51.366;-0.222;2023-04-28T03:11:37;100456.11;;;21.66;50.53
75745;BME280;64359;51.366;-0.222;2023-04-28T03:12:41;100459.57;;;21.66;50.44
75745;BME280;64359;51.366;-0.222;2023-04-28T03:13:46;100457.48;;;21.65;50.58
75745;BME280;64359;51.366;-0.222;2023-04-28T03:14:50;100457.36;;;21.65;50.49
75745;BME280;64359;51.366;-0.222;2023-04-28T03:15:54;100457.44;;;21.64;50.50
75745;BME280;64359;51.366;-0.222;2023-04-28T03:16:59;100456.94;;;21.64;50.47
75745;BME280;64359;51.366;-0.222;2023-04-28T03:18:03;100462.40;;;21.64;50.49
75745;BME280;64359;51.366;-0.222;2023-04-28T03:19:07;100459.39;;;21.63;50.61
75745;BME280;64359;51.366;-0.222;2023-04-28T03:20:12;100460.69;;;21.63;50.54
75745;BME280;64359;51.366;-0.222;2023-04-28T03:21:17;100462.02;;;21.64;50.50
75745;BME280;64359;51.366;-0.222;2023-04-28T03:22:21;100459.48;;;21.64;50.51
75745;BME280;64359;51.366;-0.222;2023-04-28T03:23:25;100461.35;;;21.65;50.63
75745;BME280;64359;51.366;-0.222;2023-04-28T03:24:30;100461.08;;;21.65;50.67
75745;BME280;64359;51.366;-0.222;2023-04-28T03:25:34;100459.40;;;21.66;50.81
75745;BME280;64359;51.366;-0.222;2023-04-28T03:26:38;100461.83;;;21.67;50.78
75745;BME280;64359;51.366;-0.222;2023-04-28T03:27:42;100458.83;;;21.68;50.83
75745;BME280;64359;51.366;-0.222;2023-04-28T03:28:47;100461.84;;;21.69;50.77
75745;BME280;64359;51.366;-0.222;2023-04-28T03:29:51;100462.92;;;21.70;50.69
75745;BME280;64359;51.366;-0.222;2023-04-28T03:30:56;100465.77;;;21.72;50.66
75745;BME280;64359;51.366;-0.222;2023-04-28T03:32:03;100468.65;;;21.74;50.66
75745;BME280;64359;51.366;-0.222;2023-04-28T03:33:07;100469.91;;;21.75;50.57
75745;BME280;64359;51.366;-0.222;2023-04-28T03:34:12;100474.77;;;21.77;50.59
75745;BME280;64359;51.366;-0.222;2023-04-28T03:35:16;100473.79;;;21.79;50.47
75745;BME280;64359;51.366;-0.222;2023-04-28T03:36:20;100474.34;;;21.80;50.55
75745;BME280;64359;51.366;-0.222;2023-04-28T03:37:25;100474.68;;;21.82;50.56
75745;BME280;64359;51.366;-0.222;2023-04-28T03:38:29;100473.93;;;21.83;50.53
75745;BME280;64359;51.366;-0.222;2023-04-28T03:39:33;100477.64;;;21.85;50.55
75745;BME280;64359;51.366;-0.222;2023-04-28T03:40:38;100476.15;;;21.87;50.44
75745;BME280;64359;51.366;-0.222;2023-04-28T03:41:42;100479.66;;;21.89;50.41
75745;BME280;64359;51.366;-0.222;2023-04-28T03:42:47;100476.78;;;21.90;50.40
75745;BME280;64359;51.366;-0.222;2023-04-28T03:43:51;100482.30;;;21.92;50.35
75745;BME280;64359;51.366;-0.222;2023-04-28T03:44:56;100474.92;;;21.93;50.35
75745;BME280;64359;51.366;-0.222;2023-04-28T03:46:00;100475.05;;;21.95;50.41
75745;BME280;64359;51.366;-0.222;2023-04-28T03:47:04;100473.01;;;21.97;50.35
75745;BME280;64359;51.366;-0.222;2023-04-28T03:48:09;100477.18;;;21.98;50.32
75745;BME280;64359;51.366;-0.222;2023-04-28T03:49:13;100472.23;;;21.98;50.27
75745;BME280;64359;51.366;-0.222;2023-04-28T03:50:17;100472.45;;;22.00;50.34
75745;BME280;64359;51.366;-0.222;2023-04-28T03:51:22;100469.21;;;22.01;50.34
75745;BME280;64359;51.366;-0.222;2023-04-28T03:52:26;100466.76;;;22.02;50.20
75745;BME280;64359;51.366;-0.222;2023-04-28T03:53:31;100462.83;;;22.03;50.17
75745;BME280;64359;51.366;-0.222;2023-04-28T03:54:35;100461.84;;;22.03;50.26
75745;BME280;64359;51.366;-0.222;2023-04-28T03:55:39;100463.66;;;22.05;50.23
75745;BME280;64359;51.366;-0.222;2023-04-28T03:56:44;100461.49;;;22.05;50.06
75745;BME280;64359;51.366;-0.222;2023-04-28T03:57:49;100458.54;;;22.05;50.12
75745;BME280;64359;51.366;-0.222;2023-04-28T03:58:53;100461.13;;;22.06;50.06
75745;BME280;64359;51.366;-0.222;2023-04-28T03:59:57;100458.53;;;22.07;50.13
75745;BME280;64359;51.366;-0.222;2023-04-28T04:01:02;100457.73;;;22.08;50.16
75745;BME280;64359;51.366;-0.222;2023-04-28T04:02:07;100456.87;;;22.09;49.91
75745;BME280;64359;51.366;-0.222;2023-04-28T04:03:11;100452.44;;;22.08;50.16
75745;BME280;64359;51.366;-0.222;2023-04-28T04:04:15;100456.50;;;22.09;50.05
75745;BME280;64359;51.366;-0.222;2023-04-28T04:05:20;100456.66;;;22.09;50.00
75745;BME280;64359;51.366;-0.222;2023-04-28T04:06:24;100455.54;;;22.09;50.06
75745;BME280;64359;51.366;-0.222;2023-04-28T04:07:29;100455.48;;;22.10;50.01
75745;BME280;64359;51.366;-0.222;2023-04-28T04:08:33;100461.42;;;22.10;50.25
75745;BME280;64359;51.366;-0.222;2023-04-28T04:09:37;100458.33;;;22.10;50.21
75745;BME280;64359;51.366;-0.222;2023-04-28T04:10:42;100459.34;;;22.10;50.35
75745;BME280;64359;51.366;-0.222;2023-04-28T04:11:46;100459.38;;;22.10;50.21
75745;BME280;64359;51.366;-0.222;2023-04-28T04:12:50;100455.16;;;22.10;50.53
75745;BME280;64359;51.366;-0.222;2023-04-28T04:13:55;100455.20;;;22.10;50.45
75745;BME280;64359;51.366;-0.222;2023-04-28T04:14:59;100458.95;;;22.11;50.49
75745;BME280;64359;51.366;-0.222;2023-04-28T04:16:04;100457.33;;;22.11;50.49
75745;BME280;64359;51.366;-0.222;2023-04-28T04:17:08;100459.45;;;22.11;50.56
75745;BME280;64359;51.366;-0.222;2023-04-28T04:18:13;100461.51;;;22.10;50.59
75745;BME280;64359;51.366;-0.222;2023-04-28T04:19:17;100462.64;;;22.10;50.52
75745;BME280;64359;51.366;-0.222;2023-04-28T04:20:22;100464.05;;;22.10;50.63
75745;BME280;64359;51.366;-0.222;2023-04-28T04:21:26;100463.55;;;22.10;50.58
75745;BME280;64359;51.366;-0.222;2023-04-28T04:22:30;100464.27;;;22.10;50.65
75745;BME280;64359;51.366;-0.222;2023-04-28T04:23:35;100466.77;;;22.10;50.72
75745;BME280;64359;51.366;-0.222;2023-04-28T04:24:39;100463.17;;;22.10;50.71
75745;BME280;64359;51.366;-0.222;2023-04-28T04:25:43;100462.09;;;22.10;50.67
75745;BME280;64359;51.366;-0.222;2023-04-28T04:26:48;100465.51;;;22.10;50.72
75745;BME280;64359;51.366;-0.222;2023-04-28T04:27:52;100463.09;;;22.11;50.47
75745;BME280;64359;51.366;-0.222;2023-04-28T04:28:56;100469.02;;;22.11;50.27
75745;BME280;64359;51.366;-0.222;2023-04-28T04:30:01;100468.14;;;22.11;50.26
75745;BME280;64359;51.366;-0.222;2023-04-28T04:31:05;100469.89;;;22.11;50.25
75745;BME280;64359;51.366;-0.222;2023-04-28T04:32:10;100471.44;;;22.12;50.32
75745;BME280;64359;51.366;-0.222;2023-04-28T04:33:15;100467.73;;;22.13;50.22
75745;BME280;64359;51.366;-0.222;2023-04-28T04:34:20;100470.61;;;22.13;50.26
75745;BME280;64359;51.366;-0.222;2023-04-28T04:35:24;100472.33;;;22.13;50.31
75745;BME280;64359;51.366;-0.222;2023-04-28T04:36:28;100472.29;;;22.14;50.30
75745;BME280;64359;51.366;-0.222;2023-04-28T04:37:33;100474.63;;;22.14;50.16
75745;BME280;64359;51.366;-0.222;2023-04-28T04:38:37;100475.23;;;22.14;50.35
75745;BME280;64359;51.366;-0.222;2023-04-28T04:39:42;100479.71;;;22.15;50.29
75745;BME280;64359;51.366;-0.222;2023-04-28T04:40:46;100485.34;;;22.15;50.40
75745;BME280;64359;51.366;-0.222;2023-04-28T04:41:50;100483.89;;;22.15;50.27
75745;BME280;64359;51.366;-0.222;2023-04-28T04:42:55;100486.89;;;22.15;50.31
75745;BME280;64359;51.366;-0.222;2023-04-28T04:43:59;100492.15;;;22.15;50.54
75745;BME280;64359;51.366;-0.222;2023-04-28T04:45:04;100490.86;;;22.15;50.35
75745;BME280;64359;51.366;-0.222;2023-04-28T04:46:09;100488.77;;;22.15;50.33
75745;BME280;64359;51.366;-0.222;2023-04-28T04:47:14;100488.73;;;22.15;50.42
75745;BME280;64359;51.366;-0.222;2023-04-28T04:48:18;100487.67;;;22.15;50.42
75745;BME280;64359;51.366;-0.222;2023-04-28T04:49:23;100490.06;;;22.15;50.46
75745;BME280;64359;51.366;-0.222;2023-04-28T04:50:28;100493.28;;;22.15;50.51
75745;BME280;64359;51.366;-0.222;2023-04-28T04:51:32;100495.86;;;22.15;50.41
75745;BME280;64359;51.366;-0.222;2023-04-28T04:52:36;100497.49;;;22.15;50.58
75745;BME280;64359;51.366;-0.222;2023-04-28T04:53:41;100493.52;;;22.14;50.53
75745;BME280;64359;51.366;-0.222;2023-04-28T04:54:46;100499.45;;;22.15;50.58
75745;BME280;64359;51.366;-0.222;2023-04-28T04:55:50;100496.33;;;22.14;50.49
75745;BME280;64359;51.366;-0.222;2023-04-28T04:56:55;100501.33;;;22.14;50.56
75745;BME280;64359;51.366;-0.222;2023-04-28T04:57:59;100501.20;;;22.14;50.64
75745;BME280;64359;51.366;-0.222;2023-04-28T04:59:05;100501.41;;;22.14;50.64
75745;BME280;64359;51.366;-0.222;2023-04-28T05:00:11;100502.33;;;22.14;50.71
75745;BME280;64359;51.366;-0.222;2023-04-28T05:01:15;100505.83;;;22.13;50.82
75745;BME280;64359;51.366;-0.222;2023-04-28T05:02:20;100505.63;;;22.13;50.86
75745;BME280;64359;51.366;-0.222;2023-04-28T05:03:25;100506.04;;;22.13;50.79
75745;BME280;64359;51.366;-0.222;2023-04-28T05:04:29;100505.33;;;22.13;50.76
75745;BME280;64359;51.366;-0.222;2023-04-28T05:05:33;100505.04;;;22.12;50.85
75745;BME280;64359;51.366;-0.222;2023-04-28T05:06:38;100505.38;;;22.12;50.99
75745;BME280;64359;51.366;-0.222;2023-04-28T05:07:43;100508.79;;;22.13;50.90
75745;BME280;64359;51.366;-0.222;2023-04-28T05:08:47;100507.13;;;22.12;51.00
75745;BME280;64359;51.366;-0.222;2023-04-28T05:09:52;100505.63;;;22.12;50.89
75745;BME280;64359;51.366;-0.222;2023-04-28T05:10:56;100504.38;;;22.12;50.92
75745;BME280;64359;51.366;-0.222;2023-04-28T05:12:01;100506.92;;;22.12;51.12
75745;BME280;64359;51.366;-0.222;2023-04-28T05:13:05;100513.85;;;22.11;50.99
75745;BME280;64359;51.366;-0.222;2023-04-28T05:14:10;100515.01;;;22.11;51.03
75745;BME280;64359;51.366;-0.222;2023-04-28T05:15:15;100509.80;;;22.11;51.08
75745;BME280;64359;51.366;-0.222;2023-04-28T05:16:19;100512.59;;;22.11;51.04
75745;BME280;64359;51.366;-0.222;2023-04-28T05:17:23;100520.43;;;22.11;50.89
75745;BME280;64359;51.366;-0.222;2023-04-28T05:18:28;100517.72;;;22.11;51.21
75745;BME280;64359;51.366;-0.222;2023-04-28T05:19:32;100520.98;;;22.11;50.83
75745;BME280;64359;51.366;-0.222;2023-04-28T05:20:37;100519.48;;;22.10;50.97
75745;BME280;64359;51.366;-0.222;2023-04-28T05:21:41;100521.48;;;22.10;50.89
75745;BME280;64359;51.366;-0.222;2023-04-28T05:22:46;100519.80;;;22.10;51.01
75745;BME280;64359;51.366;-0.222;2023-04-28T05:23:50;100520.93;;;22.10;51.06
75745;BME280;64359;51.366;-0.222;2023-04-28T05:24:55;100520.48;;;22.10;50.95
75745;BME280;64359;51.366;-0.222;2023-04-28T05:26:00;100523.91;;;22.12;51.01
75745;BME280;64359;51.366;-0.222;2023-04-28T05:27:06;100523.77;;;22.12;51.07
75745;BME280;64359;51.366;-0.222;2023-04-28T05:28:11;100527.88;;;22.12;50.99
75745;BME280;64359;51.366;-0.222;2023-04-28T05:29:15;100529.05;;;22.13;51.13
75745;BME280;64359;51.366;-0.222;2023-04-28T05:30:20;100528.08;;;22.13;51.13
75745;BME280;64359;51.366;-0.222;2023-04-28T05:31:24;100529.33;;;22.13;51.18
75745;BME280;64359;51.366;-0.222;2023-04-28T05:32:29;100529.17;;;22.14;51.14
75745;BME280;64359;51.366;-0.222;2023-04-28T05:33:33;100529.59;;;22.15;51.26